sensor_id;sensor_type;location;lat;lon;timestamp;P1;durP1;ratioP1;P2;durP2;ratioP2
16416;SDS011;8317;52.186;5.688;2023-04-30T00:02:09;7.55;;;4.07;;
16416;SDS011;8317;52.186;5.688;2023-04-30T00:04:36;6.32;;;4.18;;
16416;SDS011;8317;52.186;5.688;2023-04-30T00:07:03;10.57;;;5.65;;
16416;SDS011;8317;52.186;5.688;2023-04-30T00:09:31;11.38;;;4.75;;
16416;SDS011;8317;52.186;5.688;2023-04-30T00:11:58;6.97;;;4.22;;
16416;SDS011;8317;52.186;5.688;2023-04-30T00:14:25;9.38;;;4.40;;
16416;SDS011;8317;52.186;5.688;2023-04-30T00:16:52;11.50;;;6.15;;
16416;SDS011;8317;52.186;5.688;2023-04-30T00:19:19;6.15;;;4.15;;
16416;SDS011;8317;52.186;5.688;2023-04-30T00:21:46;10.82;;;5.03;;
16416;SDS011;8317;52.186;5.688;2023-04-30T00:24:12;7.75;;;4.57;;
16416;SDS011;8317;52.186;5.688;2023-04-30T00:26:41;6.25;;;4.22;;
16416;SDS011;8317;52.186;5.688;2023-04-30T00:29:08;8.85;;;4.90;;
16416;SDS011;8317;52.186;5.688;2023-04-30T00:31:35;7.50;;;4.22;;
16416;SDS011;8317;52.186;5.688;2023-04-30T00:34:02;9.70;;;4.50;;
16416;SDS011;8317;52.186;5.688;2023-04-30T00:36:29;5.75;;;4.00;;
16416;SDS011;8317;52.186;5.688;2023-04-30T00:38:56;9.63;;;4.78;;
16416;SDS011;8317;52.186;5.688;2023-04-30T00:41:23;6.50;;;4.18;;
16416;SDS011;8317;52.186;5.688;2023-04-30T00:44:21;7.97;;;5.75;;
16416;SDS011;8317;52.186;5.688;2023-04-30T00:46:48;11.80;;;5.80;;
16416;SDS011;8317;52.186;5.688;2023-04-30T00:49:15;8.93;;;4.93;;
16416;SDS011;8317;52.186;5.688;2023-04-30T00:51:42;9.70;;;5.18;;
16416;SDS011;8317;52.186;5.688;2023-04-30T00:54:10;4.90;;;3.55;;
16416;SDS011;8317;52.186;5.688;2023-04-30T00:56:37;9.63;;;5.07;;
16416;SDS011;8317;52.186;5.688;2023-04-30T00:59:04;9.73;;;4.70;;
16416;SDS011;8317;52.186;5.688;2023-04-30T01:01:33;6.13;;;4.32;;
16416;SDS011;8317;52.186;5.688;2023-04-30T01:04:00;7.97;;;4.07;;
16416;SDS011;8317;52.186;5.688;2023-04-30T01:06:27;8.98;;;4.55;;
16416;SDS011;8317;52.186;5.688;2023-04-30T01:08:54;7.88;;;4.70;;
16416;SDS011;8317;52.186;5.688;2023-04-30T01:11:24;8.57;;;4.68;;
16416;SDS011;8317;52.186;5.688;2023-04-30T01:14:01;8.50;;;5.07;;
16416;SDS011;8317;52.186;5.688;2023-04-30T01:16:38;6.88;;;4.15;;
16416;SDS011;8317;52.186;5.688;2023-04-30T01:19:09;6.57;;;3.80;;
16416;SDS011;8317;52.186;5.688;2023-04-30T01:21:54;13.20;;;5.10;;
16416;SDS011;8317;52.186;5.688;2023-04-30T01:24:31;8.95;;;4.95;;
16416;SDS011;8317;52.186;5.688;2023-04-30T01:27:14;9.05;;;5.43;;
16416;SDS011;8317;52.186;5.688;2023-04-30T01:29:56;6.53;;;4.47;;
16416;SDS011;8317;52.186;5.688;2023-04-30T01:32:24;7.57;;;4.93;;
16416;SDS011;8317;52.186;5.688;2023-04-30T01:34:51;8.50;;;4.47;;
16416;SDS011;8317;52.186;5.688;2023-04-30T01:37:20;7.40;;;4.20;;
16416;SDS011;8317;52.186;5.688;2023-04-30T01:39:56;6.40;;;4.32;;
16416;SDS011;8317;52.186;5.688;2023-04-30T01:42:35;12.68;;;5.78;;
16416;SDS011;8317;52.186;5.688;2023-04-30T01:45:14;8.20;;;5.22;;
16416;SDS011;8317;52.186;5.688;2023-04-30T01:47:49;8.48;;;5.20;;
16416;SDS011;8317;52.186;5.688;2023-04-30T01:50:24;9.27;;;5.65;;
16416;SDS011;8317;52.186;5.688;2023-04-30T01:52:55;10.38;;;4.65;;
16416;SDS011;8317;52.186;5.688;2023-04-30T01:55:26;6.47;;;4.50;;
16416;SDS011;8317;52.186;5.688;2023-04-30T01:57:59;8.85;;;5.03;;
16416;SDS011;8317;52.186;5.688;2023-04-30T02:00:30;12.75;;;5.57;;
16416;SDS011;8317;52.186;5.688;2023-04-30T02:02:57;8.73;;;4.43;;
16416;SDS011;8317;52.186;5.688;2023-04-30T02:05:24;6.90;;;3.85;;
16416;SDS011;8317;52.186;5.688;2023-04-30T02:07:52;8.10;;;4.55;;
16416;SDS011;8317;52.186;5.688;2023-04-30T02:10:20;6.32;;;4.20;;
16416;SDS011;8317;52.186;5.688;2023-04-30T02:12:47;11.52;;;5.38;;
16416;SDS011;8317;52.186;5.688;2023-04-30T02:15:14;5.88;;;4.25;;
16416;SDS011;8317;52.186;5.688;2023-04-30T02:17:43;6.72;;;4.60;;
16416;SDS011;8317;52.186;5.688;2023-04-30T02:20:10;6.85;;;4.60;;
16416;SDS011;8317;52.186;5.688;2023-04-30T02:22:37;8.30;;;5.20;;
16416;SDS011;8317;52.186;5.688;2023-04-30T02:25:04;9.48;;;4.35;;
16416;SDS011;8317;52.186;5.688;2023-04-30T02:27:31;5.78;;;3.75;;
16416;SDS011;8317;52.186;5.688;2023-04-30T02:29:59;6.55;;;4.45;;
16416;SDS011;8317;52.186;5.688;2023-04-30T02:32:26;7.13;;;4.03;;
16416;SDS011;8317;52.186;5.688;2023-04-30T02:34:54;4.80;;;3.97;;
16416;SDS011;8317;52.186;5.688;2023-04-30T02:37:22;7.10;;;4.68;;
16416;SDS011;8317;52.186;5.688;2023-04-30T02:39:49;8.20;;;4.50;;
16416;SDS011;8317;52.186;5.688;2023-04-30T02:42:16;5.97;;;3.92;;
16416;SDS011;8317;52.186;5.688;2023-04-30T02:44:43;7.30;;;3.97;;
16416;SDS011;8317;52.186;5.688;2023-04-30T02:47:10;6.70;;;4.57;;
16416;SDS011;8317;52.186;5.688;2023-04-30T02:49:37;5.93;;;4.60;;
16416;SDS011;8317;52.186;5.688;2023-04-30T02:52:05;7.73;;;4.73;;
16416;SDS011;8317;52.186;5.688;2023-04-30T02:54:33;4.97;;;3.03;;
16416;SDS011;8317;52.186;5.688;2023-04-30T02:57:00;6.78;;;4.85;;
16416;SDS011;8317;52.186;5.688;2023-04-30T02:59:27;4.15;;;3.08;;
16416;SDS011;8317;52.186;5.688;2023-04-30T03:01:54;6.95;;;3.45;;
16416;SDS011;8317;52.186;5.688;2023-04-30T03:04:21;5.50;;;3.60;;
16416;SDS011;8317;52.186;5.688;2023-04-30T03:06:48;6.50;;;4.20;;
16416;SDS011;8317;52.186;5.688;2023-04-30T03:09:16;5.97;;;3.70;;
16416;SDS011;8317;52.186;5.688;2023-04-30T03:11:43;6.53;;;3.90;;
16416;SDS011;8317;52.186;5.688;2023-04-30T03:14:10;7.47;;;4.30;;
16416;SDS011;8317;52.186;5.688;2023-04-30T03:16:37;6.93;;;3.65;;
16416;SDS011;8317;52.186;5.688;2023-04-30T03:19:04;6.20;;;4.10;;
16416;SDS011;8317;52.186;5.688;2023-04-30T03:21:31;5.18;;;4.13;;
16416;SDS011;8317;52.186;5.688;2023-04-30T03:23:57;7.53;;;3.63;;
16416;SDS011;8317;52.186;5.688;2023-04-30T03:26:26;5.50;;;3.83;;
16416;SDS011;8317;52.186;5.688;2023-04-30T03:28:53;6.63;;;4.13;;
16416;SDS011;8317;52.186;5.688;2023-04-30T03:31:20;6.28;;;3.55;;
16416;SDS011;8317;52.186;5.688;2023-04-30T03:33:47;7.40;;;4.20;;
16416;SDS011;8317;52.186;5.688;2023-04-30T03:36:13;5.30;;;3.80;;
16416;SDS011;8317;52.186;5.688;2023-04-30T03:38:40;4.97;;;3.83;;
16416;SDS011;8317;52.186;5.688;2023-04-30T03:41:08;8.00;;;4.43;;
16416;SDS011;8317;52.186;5.688;2023-04-30T03:43:36;5.75;;;3.53;;
16416;SDS011;8317;52.186;5.688;2023-04-30T03:46:03;7.67;;;3.73;;
16416;SDS011;8317;52.186;5.688;2023-04-30T03:48:30;7.40;;;3.40;;
16416;SDS011;8317;52.186;5.688;2023-04-30T03:50:57;4.37;;;3.50;;
16416;SDS011;8317;52.186;5.688;2023-04-30T03:53:24;4.93;;;3.33;;
16416;SDS011;8317;52.186;5.688;2023-04-30T03:55:51;5.17;;;3.40;;
16416;SDS011;8317;52.186;5.688;2023-04-30T03:58:19;8.27;;;3.57;;
16416;SDS011;8317;52.186;5.688;2023-04-30T04:00:47;5.70;;;3.40;;
16416;SDS011;8317;52.186;5.688;2023-04-30T04:03:14;8.27;;;4.07;;
16416;SDS011;8317;52.186;5.688;2023-04-30T04:05:41;5.07;;;3.17;;
16416;SDS011;8317;52.186;5.688;2023-04-30T04:08:08;6.73;;;4.03;;
16416;SDS011;8317;52.186;5.688;2023-04-30T04:10:35;9.40;;;4.20;;
16416;SDS011;8317;52.186;5.688;2023-04-30T04:13:03;6.53;;;4.20;;
16416;SDS011;8317;52.186;5.688;2023-04-30T04:15:30;7.50;;;4.40;;
16416;SDS011;8317;52.186;5.688;2023-04-30T04:17:58;4.60;;;3.87;;
16416;SDS011;8317;52.186;5.688;2023-04-30T04:20:25;6.57;;;3.90;;
16416;SDS011;8317;52.186;5.688;2023-04-30T04:22:53;9.50;;;3.80;;
16416;SDS011;8317;52.186;5.688;2023-04-30T04:25:21;8.03;;;3.77;;
16416;SDS011;8317;52.186;5.688;2023-04-30T04:27:49;5.33;;;3.07;;
16416;SDS011;8317;52.186;5.688;2023-04-30T04:30:16;7.37;;;4.23;;
16416;SDS011;8317;52.186;5.688;2023-04-30T04:32:43;5.90;;;3.80;;
16416;SDS011;8317;52.186;5.688;2023-04-30T04:35:15;6.63;;;3.97;;
16416;SDS011;8317;52.186;5.688;2023-04-30T04:37:42;9.63;;;3.90;;
16416;SDS011;8317;52.186;5.688;2023-04-30T04:40:10;6.03;;;4.67;;
16416;SDS011;8317;52.186;5.688;2023-04-30T04:42:37;9.40;;;4.63;;
16416;SDS011;8317;52.186;5.688;2023-04-30T04:45:04;6.57;;;3.83;;
16416;SDS011;8317;52.186;5.688;2023-04-30T04:47:32;6.20;;;4.37;;
16416;SDS011;8317;52.186;5.688;2023-04-30T04:49:59;6.70;;;3.80;;
16416;SDS011;8317;52.186;5.688;2023-04-30T04:52:27;8.67;;;3.77;;
16416;SDS011;8317;52.186;5.688;2023-04-30T04:54:54;10.73;;;4.23;;
16416;SDS011;8317;52.186;5.688;2023-04-30T04:57:21;5.07;;;3.60;;
16416;SDS011;8317;52.186;5.688;2023-04-30T04:59:49;9.00;;;4.00;;
16416;SDS011;8317;52.186;5.688;2023-04-30T05:02:15;5.27;;;3.90;;
16416;SDS011;8317;52.186;5.688;2023-04-30T05:04:42;7.87;;;5.70;;
16416;SDS011;8317;52.186;5.688;2023-04-30T05:07:10;8.37;;;4.37;;
16416;SDS011;8317;52.186;5.688;2023-04-30T05:09:39;7.77;;;3.90;;
16416;SDS011;8317;52.186;5.688;2023-04-30T05:12:06;5.40;;;3.93;;
16416;SDS011;8317;52.186;5.688;2023-04-30T05:14:33;12.03;;;4.60;;
16416;SDS011;8317;52.186;5.688;2023-04-30T05:17:01;4.77;;;3.73;;
16416;SDS011;8317;52.186;5.688;2023-04-30T05:19:28;5.60;;;4.00;;
16416;SDS011;8317;52.186;5.688;2023-04-30T05:21:54;8.33;;;4.60;;
16416;SDS011;8317;52.186;5.688;2023-04-30T05:24:21;9.60;;;4.03;;
16416;SDS011;8317;52.186;5.688;2023-04-30T05:26:50;7.03;;;3.87;;
16416;SDS011;8317;52.186;5.688;2023-04-30T05:29:16;5.97;;;3.70;;
16416;SDS011;8317;52.186;5.688;2023-04-30T05:31:43;6.87;;;4.10;;
16416;SDS011;8317;52.186;5.688;2023-04-30T05:34:10;6.13;;;4.00;;
16416;SDS011;8317;52.186;5.688;2023-04-30T05:36:37;10.33;;;4.43;;
16416;SDS011;8317;52.186;5.688;2023-04-30T05:39:04;9.30;;;4.83;;
16416;SDS011;8317;52.186;5.688;2023-04-30T05:41:31;6.43;;;4.57;;
16416;SDS011;8317;52.186;5.688;2023-04-30T05:43:59;10.40;;;4.13;;
16416;SDS011;8317;52.186;5.688;2023-04-30T05:46:29;9.60;;;4.65;;
16416;SDS011;8317;52.186;5.688;2023-04-30T05:48:55;7.50;;;4.20;;
16416;SDS011;8317;52.186;5.688;2023-04-30T05:51:22;9.48;;;4.72;;
16416;SDS011;8317;52.186;5.688;2023-04-30T05:53:49;11.73;;;5.35;;
16416;SDS011;8317;52.186;5.688;2023-04-30T05:56:16;8.82;;;4.40;;
16416;SDS011;8317;52.186;5.688;2023-04-30T05:58:43;9.10;;;4.85;;
16416;SDS011;8317;52.186;5.688;2023-04-30T06:01:11;7.50;;;5.18;;
16416;SDS011;8317;52.186;5.688;2023-04-30T06:03:38;7.47;;;4.45;;
16416;SDS011;8317;52.186;5.688;2023-04-30T06:06:05;8.32;;;5.15;;
16416;SDS011;8317;52.186;5.688;2023-04-30T06:08:32;9.65;;;5.55;;
16416;SDS011;8317;52.186;5.688;2023-04-30T06:10:59;10.95;;;5.43;;
16416;SDS011;8317;52.186;5.688;2023-04-30T06:13:29;8.95;;;5.38;;
16416;SDS011;8317;52.186;5.688;2023-04-30T06:15:56;9.52;;;4.90;;
16416;SDS011;8317;52.186;5.688;2023-04-30T06:18:25;9.80;;;5.53;;
16416;SDS011;8317;52.186;5.688;2023-04-30T06:20:52;6.78;;;5.00;;
16416;SDS011;8317;52.186;5.688;2023-04-30T06:23:18;8.23;;;5.60;;
16416;SDS011;8317;52.186;5.688;2023-04-30T06:25:45;9.98;;;5.68;;
16416;SDS011;8317;52.186;5.688;2023-04-30T06:28:12;11.77;;;5.93;;
16416;SDS011;8317;52.186;5.688;2023-04-30T06:30:40;8.52;;;5.00;;
16416;SDS011;8317;52.186;5.688;2023-04-30T06:33:07;10.13;;;5.30;;
16416;SDS011;8317;52.186;5.688;2023-04-30T06:35:35;8.20;;;5.47;;
16416;SDS011;8317;52.186;5.688;2023-04-30T06:38:02;6.22;;;4.32;;
16416;SDS011;8317;52.186;5.688;2023-04-30T06:40:29;11.52;;;5.07;;
16416;SDS011;8317;52.186;5.688;2023-04-30T06:42:56;8.35;;;4.47;;
16416;SDS011;8317;52.186;5.688;2023-04-30T06:45:23;5.60;;;4.03;;
16416;SDS011;8317;52.186;5.688;2023-04-30T06:47:50;5.72;;;3.63;;
16416;SDS011;8317;52.186;5.688;2023-04-30T06:50:17;6.38;;;4.22;;
16416;SDS011;8317;52.186;5.688;2023-04-30T06:52:46;8.50;;;3.85;;
16416;SDS011;8317;52.186;5.688;2023-04-30T06:55:13;5.18;;;3.30;;
16416;SDS011;8317;52.186;5.688;2023-04-30T06:57:40;9.73;;;3.92;;
16416;SDS011;8317;52.186;5.688;2023-04-30T07:00:07;6.75;;;3.22;;
16416;SDS011;8317;52.186;5.688;2023-04-30T07:02:35;6.75;;;4.00;;
16416;SDS011;8317;52.186;5.688;2023-04-30T07:05:02;12.15;;;3.30;;
16416;SDS011;8317;52.186;5.688;2023-04-30T07:07:29;5.28;;;3.25;;
16416;SDS011;8317;52.186;5.688;2023-04-30T07:09:58;8.73;;;3.67;;
16416;SDS011;8317;52.186;5.688;2023-04-30T07:12:24;3.42;;;3.13;;
16416;SDS011;8317;52.186;5.688;2023-04-30T07:14:51;6.10;;;3.53;;
16416;SDS011;8317;52.186;5.688;2023-04-30T07:17:19;6.40;;;3.97;;
16416;SDS011;8317;52.186;5.688;2023-04-30T07:19:46;4.85;;;3.15;;
16416;SDS011;8317;52.186;5.688;2023-04-30T07:22:13;8.63;;;3.13;;
16416;SDS011;8317;52.186;5.688;2023-04-30T07:24:40;6.22;;;3.42;;
16416;SDS011;8317;52.186;5.688;2023-04-30T07:27:08;4.00;;;2.88;;
16416;SDS011;8317;52.186;5.688;2023-04-30T07:29:35;3.38;;;2.75;;
16416;SDS011;8317;52.186;5.688;2023-04-30T07:32:02;6.47;;;2.67;;
16416;SDS011;8317;52.186;5.688;2023-04-30T07:34:29;3.63;;;2.88;;
16416;SDS011;8317;52.186;5.688;2023-04-30T07:36:56;4.45;;;2.90;;
16416;SDS011;8317;52.186;5.688;2023-04-30T07:39:23;9.98;;;3.03;;
16416;SDS011;8317;52.186;5.688;2023-04-30T07:41:50;6.07;;;2.78;;
16416;SDS011;8317;52.186;5.688;2023-04-30T07:44:18;3.67;;;2.35;;
16416;SDS011;8317;52.186;5.688;2023-04-30T07:46:45;2.92;;;2.30;;
16416;SDS011;8317;52.186;5.688;2023-04-30T07:49:12;4.30;;;2.13;;
16416;SDS011;8317;52.186;5.688;2023-04-30T07:51:39;6.00;;;2.40;;
16416;SDS011;8317;52.186;5.688;2023-04-30T07:54:07;3.25;;;2.38;;
16416;SDS011;8317;52.186;5.688;2023-04-30T07:56:34;6.32;;;2.38;;
16416;SDS011;8317;52.186;5.688;2023-04-30T07:59:01;4.88;;;2.22;;
16416;SDS011;8317;52.186;5.688;2023-04-30T08:01:29;3.33;;;2.10;;
16416;SDS011;8317;52.186;5.688;2023-04-30T08:03:57;3.15;;;2.30;;
16416;SDS011;8317;52.186;5.688;2023-04-30T08:06:24;10.45;;;2.80;;
16416;SDS011;8317;52.186;5.688;2023-04-30T08:08:51;2.38;;;2.17;;
16416;SDS011;8317;52.186;5.688;2023-04-30T08:11:18;4.70;;;2.45;;
16416;SDS011;8317;52.186;5.688;2023-04-30T08:13:45;4.35;;;1.90;;
16416;SDS011;8317;52.186;5.688;2023-04-30T08:16:12;1.73;;;1.60;;
16416;SDS011;8317;52.186;5.688;2023-04-30T08:18:41;2.70;;;2.00;;
16416;SDS011;8317;52.186;5.688;2023-04-30T08:21:10;2.60;;;2.00;;
16416;SDS011;8317;52.186;5.688;2023-04-30T08:23:37;2.30;;;2.10;;
16416;SDS011;8317;52.186;5.688;2023-04-30T08:26:04;3.75;;;1.95;;
16416;SDS011;8317;52.186;5.688;2023-04-30T08:28:31;5.82;;;2.22;;
16416;SDS011;8317;52.186;5.688;2023-04-30T08:30:58;2.13;;;1.92;;
16416;SDS011;8317;52.186;5.688;2023-04-30T08:33:25;2.03;;;1.67;;
16416;SDS011;8317;52.186;5.688;2023-04-30T08:35:53;3.58;;;2.13;;
16416;SDS011;8317;52.186;5.688;2023-04-30T08:38:20;4.50;;;2.28;;
16416;SDS011;8317;52.186;5.688;2023-04-30T08:40:47;1.80;;;1.70;;
16416;SDS011;8317;52.186;5.688;2023-04-30T08:43:21;2.10;;;1.90;;
16416;SDS011;8317;52.186;5.688;2023-04-30T08:45:49;2.47;;;2.08;;
16416;SDS011;8317;52.186;5.688;2023-04-30T08:48:17;5.32;;;1.75;;
16416;SDS011;8317;52.186;5.688;2023-04-30T08:50:45;7.10;;;2.30;;
16416;SDS011;8317;52.186;5.688;2023-04-30T08:53:14;3.15;;;1.50;;
16416;SDS011;8317;52.186;5.688;2023-04-30T08:55:45;2.63;;;1.80;;
16416;SDS011;8317;52.186;5.688;2023-04-30T08:58:12;2.17;;;1.98;;
16416;SDS011;8317;52.186;5.688;2023-04-30T09:00:40;2.00;;;1.88;;
16416;SDS011;8317;52.186;5.688;2023-04-30T09:03:07;10.82;;;2.38;;
16416;SDS011;8317;52.186;5.688;2023-04-30T09:05:35;2.88;;;1.77;;
16416;SDS011;8317;52.186;5.688;2023-04-30T09:08:02;3.30;;;2.15;;
16416;SDS011;8317;52.186;5.688;2023-04-30T09:10:32;4.97;;;2.00;;
16416;SDS011;8317;52.186;5.688;2023-04-30T09:12:59;3.30;;;2.20;;
16416;SDS011;8317;52.186;5.688;2023-04-30T09:15:27;3.70;;;1.65;;
16416;SDS011;8317;52.186;5.688;2023-04-30T09:18:07;3.50;;;1.60;;
16416;SDS011;8317;52.186;5.688;2023-04-30T09:20:35;4.55;;;1.77;;
16416;SDS011;8317;52.186;5.688;2023-04-30T09:23:06;3.70;;;2.08;;
16416;SDS011;8317;52.186;5.688;2023-04-30T09:25:39;3.72;;;1.85;;
16416;SDS011;8317;52.186;5.688;2023-04-30T09:28:07;3.25;;;1.95;;
16416;SDS011;8317;52.186;5.688;2023-04-30T09:30:35;2.25;;;1.85;;
16416;SDS011;8317;52.186;5.688;2023-04-30T09:33:02;4.05;;;1.77;;
16416;SDS011;8317;52.186;5.688;2023-04-30T09:35:30;4.63;;;1.80;;
16416;SDS011;8317;52.186;5.688;2023-04-30T09:37:58;3.95;;;1.88;;
16416;SDS011;8317;52.186;5.688;2023-04-30T09:40:35;1.70;;;1.58;;
16416;SDS011;8317;52.186;5.688;2023-04-30T09:43:06;1.30;;;1.20;;
16416;SDS011;8317;52.186;5.688;2023-04-30T09:45:40;4.15;;;1.75;;
16416;SDS011;8317;52.186;5.688;2023-04-30T09:48:08;2.00;;;1.27;;
16416;SDS011;8317;52.186;5.688;2023-04-30T09:50:37;5.45;;;1.70;;
16416;SDS011;8317;52.186;5.688;2023-04-30T09:53:05;1.58;;;1.48;;
16416;SDS011;8317;52.186;5.688;2023-04-30T09:55:34;2.47;;;1.30;;
16416;SDS011;8317;52.186;5.688;2023-04-30T09:58:02;2.22;;;1.50;;
16416;SDS011;8317;52.186;5.688;2023-04-30T10:00:33;3.90;;;1.60;;
16416;SDS011;8317;52.186;5.688;2023-04-30T10:03:00;3.65;;;1.50;;
16416;SDS011;8317;52.186;5.688;2023-04-30T10:05:32;2.00;;;1.50;;
16416;SDS011;8317;52.186;5.688;2023-04-30T10:08:01;3.15;;;1.80;;
16416;SDS011;8317;52.186;5.688;2023-04-30T10:10:30;5.13;;;1.95;;
16416;SDS011;8317;52.186;5.688;2023-04-30T10:12:59;3.25;;;1.77;;
16416;SDS011;8317;52.186;5.688;2023-04-30T10:15:34;1.90;;;1.70;;
16416;SDS011;8317;52.186;5.688;2023-04-30T10:18:05;2.15;;;1.20;;
16416;SDS011;8317;52.186;5.688;2023-04-30T10:20:36;2.05;;;1.88;;
16416;SDS011;8317;52.186;5.688;2023-04-30T10:23:05;2.45;;;1.30;;
16416;SDS011;8317;52.186;5.688;2023-04-30T10:25:32;4.30;;;1.77;;
16416;SDS011;8317;52.186;5.688;2023-04-30T10:28:00;2.05;;;1.60;;
16416;SDS011;8317;52.186;5.688;2023-04-30T10:30:27;3.40;;;2.00;;
16416;SDS011;8317;52.186;5.688;2023-04-30T10:32:59;2.55;;;1.45;;
16416;SDS011;8317;52.186;5.688;2023-04-30T10:35:38;5.95;;;1.45;;
16416;SDS011;8317;52.186;5.688;2023-04-30T10:38:16;4.30;;;1.73;;
16416;SDS011;8317;52.186;5.688;2023-04-30T10:40:47;2.15;;;1.48;;
16416;SDS011;8317;52.186;5.688;2023-04-30T10:43:16;3.40;;;1.50;;
16416;SDS011;8317;52.186;5.688;2023-04-30T10:45:45;2.70;;;1.65;;
16416;SDS011;8317;52.186;5.688;2023-04-30T10:48:14;1.77;;;1.20;;
16416;SDS011;8317;52.186;5.688;2023-04-30T10:50:49;2.25;;;1.55;;
16416;SDS011;8317;52.186;5.688;2023-04-30T10:53:17;2.95;;;1.33;;
16416;SDS011;8317;52.186;5.688;2023-04-30T10:55:46;3.10;;;1.50;;
16416;SDS011;8317;52.186;5.688;2023-04-30T10:58:23;3.78;;;1.35;;
16416;SDS011;8317;52.186;5.688;2023-04-30T11:00:58;3.42;;;1.65;;
16416;SDS011;8317;52.186;5.688;2023-04-30T11:03:28;1.40;;;1.15;;
16416;SDS011;8317;52.186;5.688;2023-04-30T11:05:57;1.65;;;1.33;;
16416;SDS011;8317;52.186;5.688;2023-04-30T11:08:31;2.00;;;1.27;;
16416;SDS011;8317;52.186;5.688;2023-04-30T11:10:59;2.03;;;1.10;;
16416;SDS011;8317;52.186;5.688;2023-04-30T11:13:26;1.83;;;1.23;;
16416;SDS011;8317;52.186;5.688;2023-04-30T11:15:53;2.83;;;1.20;;
16416;SDS011;8317;52.186;5.688;2023-04-30T11:18:31;1.70;;;1.27;;
16416;SDS011;8317;52.186;5.688;2023-04-30T11:20:58;3.10;;;1.40;;
16416;SDS011;8317;52.186;5.688;2023-04-30T11:23:27;4.22;;;1.50;;
16416;SDS011;8317;52.186;5.688;2023-04-30T11:25:54;1.48;;;1.20;;
16416;SDS011;8317;52.186;5.688;2023-04-30T11:28:22;2.20;;;1.50;;
16416;SDS011;8317;52.186;5.688;2023-04-30T11:30:51;1.80;;;1.50;;
16416;SDS011;8317;52.186;5.688;2023-04-30T11:33:19;1.70;;;1.40;;
16416;SDS011;8317;52.186;5.688;2023-04-30T11:35:48;2.78;;;1.45;;
16416;SDS011;8317;52.186;5.688;2023-04-30T11:38:18;8.27;;;1.45;;
16416;SDS011;8317;52.186;5.688;2023-04-30T11:40:46;5.00;;;1.52;;
16416;SDS011;8317;52.186;5.688;2023-04-30T11:43:21;3.85;;;2.33;;
16416;SDS011;8317;52.186;5.688;2023-04-30T11:48:43;1.45;;;1.35;;
16416;SDS011;8317;52.186;5.688;2023-04-30T11:51:15;2.67;;;1.60;;
16416;SDS011;8317;52.186;5.688;2023-04-30T11:53:44;1.92;;;1.40;;
16416;SDS011;8317;52.186;5.688;2023-04-30T11:56:12;1.55;;;1.42;;
16416;SDS011;8317;52.186;5.688;2023-04-30T11:58:39;3.67;;;1.63;;
16416;SDS011;8317;52.186;5.688;2023-04-30T12:01:06;1.55;;;1.40;;
16416;SDS011;8317;52.186;5.688;2023-04-30T12:03:39;1.85;;;1.40;;
16416;SDS011;8317;52.186;5.688;2023-04-30T12:06:08;4.35;;;1.52;;
16416;SDS011;8317;52.186;5.688;2023-04-30T12:08:37;1.55;;;1.45;;
16416;SDS011;8317;52.186;5.688;2023-04-30T12:11:17;2.78;;;1.48;;
16416;SDS011;8317;52.186;5.688;2023-04-30T12:13:48;1.15;;;1.00;;
16416;SDS011;8317;52.186;5.688;2023-04-30T12:16:16;3.35;;;1.30;;
16416;SDS011;8317;52.186;5.688;2023-04-30T12:18:43;1.25;;;1.10;;
16416;SDS011;8317;52.186;5.688;2023-04-30T12:21:10;2.13;;;1.23;;
16416;SDS011;8317;52.186;5.688;2023-04-30T12:23:39;1.42;;;1.30;;
16416;SDS011;8317;52.186;5.688;2023-04-30T12:26:06;4.18;;;1.40;;
16416;SDS011;8317;52.186;5.688;2023-04-30T12:28:33;2.10;;;1.40;;
16416;SDS011;8317;52.186;5.688;2023-04-30T12:31:00;0.80;;;0.80;;
16416;SDS011;8317;52.186;5.688;2023-04-30T12:33:30;5.38;;;1.00;;
16416;SDS011;8317;52.186;5.688;2023-04-30T12:35:57;0.80;;;0.80;;
16416;SDS011;8317;52.186;5.688;2023-04-30T12:38:24;1.42;;;1.08;;
16416;SDS011;8317;52.186;5.688;2023-04-30T12:40:52;1.30;;;0.98;;
16416;SDS011;8317;52.186;5.688;2023-04-30T12:43:19;1.13;;;0.90;;
16416;SDS011;8317;52.186;5.688;2023-04-30T12:45:47;1.55;;;1.02;;
16416;SDS011;8317;52.186;5.688;2023-04-30T12:48:16;0.73;;;0.73;;
16416;SDS011;8317;52.186;5.688;2023-04-30T12:50:50;1.27;;;1.08;;
16416;SDS011;8317;52.186;5.688;2023-04-30T12:53:18;4.18;;;1.02;;
16416;SDS011;8317;52.186;5.688;2023-04-30T12:58:36;2.28;;;0.95;;
16416;SDS011;8317;52.186;5.688;2023-04-30T13:01:03;1.25;;;1.05;;
16416;SDS011;8317;52.186;5.688;2023-04-30T13:03:30;2.58;;;1.10;;
16416;SDS011;8317;52.186;5.688;2023-04-30T13:05:56;1.00;;;0.85;;
16416;SDS011;8317;52.186;5.688;2023-04-30T13:08:26;1.27;;;1.20;;
16416;SDS011;8317;52.186;5.688;2023-04-30T13:10:53;1.10;;;1.00;;
16416;SDS011;8317;52.186;5.688;2023-04-30T13:13:22;2.50;;;1.35;;
16416;SDS011;8317;52.186;5.688;2023-04-30T13:15:48;1.58;;;0.98;;
16416;SDS011;8317;52.186;5.688;2023-04-30T13:18:15;1.65;;;0.98;;
16416;SDS011;8317;52.186;5.688;2023-04-30T13:20:42;3.95;;;1.20;;
16416;SDS011;8317;52.186;5.688;2023-04-30T13:23:09;4.05;;;1.42;;
16416;SDS011;8317;52.186;5.688;2023-04-30T13:25:37;1.10;;;1.00;;
16416;SDS011;8317;52.186;5.688;2023-04-30T13:28:04;1.00;;;0.80;;
16416;SDS011;8317;52.186;5.688;2023-04-30T13:30:32;0.70;;;0.70;;
16416;SDS011;8317;52.186;5.688;2023-04-30T13:33:00;1.05;;;1.00;;
16416;SDS011;8317;52.186;5.688;2023-04-30T13:35:27;0.65;;;0.65;;
16416;SDS011;8317;52.186;5.688;2023-04-30T13:37:54;2.65;;;0.85;;
16416;SDS011;8317;52.186;5.688;2023-04-30T13:40:21;1.45;;;0.98;;
16416;SDS011;8317;52.186;5.688;2023-04-30T13:42:48;0.63;;;0.63;;
16416;SDS011;8317;52.186;5.688;2023-04-30T13:45:15;0.52;;;0.52;;
16416;SDS011;8317;52.186;5.688;2023-04-30T13:47:43;0.93;;;0.88;;
16416;SDS011;8317;52.186;5.688;2023-04-30T13:50:11;1.95;;;1.15;;
16416;SDS011;8317;52.186;5.688;2023-04-30T13:52:38;1.40;;;1.05;;
16416;SDS011;8317;52.186;5.688;2023-04-30T13:55:05;1.65;;;0.93;;
16416;SDS011;8317;52.186;5.688;2023-04-30T13:57:33;2.00;;;1.00;;
16416;SDS011;8317;52.186;5.688;2023-04-30T14:00:00;0.52;;;0.52;;
16416;SDS011;8317;52.186;5.688;2023-04-30T14:02:30;0.60;;;0.60;;
16416;SDS011;8317;52.186;5.688;2023-04-30T14:04:58;1.08;;;0.90;;
16416;SDS011;8317;52.186;5.688;2023-04-30T14:07:27;3.25;;;1.08;;
16416;SDS011;8317;52.186;5.688;2023-04-30T14:09:54;1.30;;;1.00;;
16416;SDS011;8317;52.186;5.688;2023-04-30T14:12:21;1.77;;;0.95;;
16416;SDS011;8317;52.186;5.688;2023-04-30T14:14:48;2.50;;;0.85;;
16416;SDS011;8317;52.186;5.688;2023-04-30T14:17:15;1.77;;;0.93;;
16416;SDS011;8317;52.186;5.688;2023-04-30T14:19:42;1.13;;;1.02;;
16416;SDS011;8317;52.186;5.688;2023-04-30T14:22:10;1.35;;;0.90;;
16416;SDS011;8317;52.186;5.688;2023-04-30T14:24:37;1.88;;;1.00;;
16416;SDS011;8317;52.186;5.688;2023-04-30T14:27:05;0.98;;;0.90;;
16416;SDS011;8317;52.186;5.688;2023-04-30T14:29:31;1.58;;;1.13;;
16416;SDS011;8317;52.186;5.688;2023-04-30T14:31:58;1.48;;;1.30;;
16416;SDS011;8317;52.186;5.688;2023-04-30T14:34:26;8.07;;;1.20;;
16416;SDS011;8317;52.186;5.688;2023-04-30T14:36:53;2.13;;;1.38;;
16416;SDS011;8317;52.186;5.688;2023-04-30T14:39:24;2.33;;;1.42;;
16416;SDS011;8317;52.186;5.688;2023-04-30T14:41:52;1.42;;;1.20;;
16416;SDS011;8317;52.186;5.688;2023-04-30T14:44:19;2.47;;;1.15;;
16416;SDS011;8317;52.186;5.688;2023-04-30T14:46:47;4.18;;;1.25;;
16416;SDS011;8317;52.186;5.688;2023-04-30T14:49:15;1.35;;;1.20;;
16416;SDS011;8317;52.186;5.688;2023-04-30T14:51:42;8.10;;;1.40;;
16416;SDS011;8317;52.186;5.688;2023-04-30T14:54:08;1.50;;;1.10;;
16416;SDS011;8317;52.186;5.688;2023-04-30T14:56:37;1.08;;;1.00;;
16416;SDS011;8317;52.186;5.688;2023-04-30T14:59:04;1.60;;;1.00;;
16416;SDS011;8317;52.186;5.688;2023-04-30T15:01:31;2.45;;;1.20;;
16416;SDS011;8317;52.186;5.688;2023-04-30T15:03:57;1.30;;;1.20;;
16416;SDS011;8317;52.186;5.688;2023-04-30T15:06:24;2.85;;;1.00;;
16416;SDS011;8317;52.186;5.688;2023-04-30T15:08:51;1.88;;;1.00;;
16416;SDS011;8317;52.186;5.688;2023-04-30T15:11:18;1.10;;;1.00;;
16416;SDS011;8317;52.186;5.688;2023-04-30T15:13:47;1.17;;;0.98;;